»·PEaware :: JZA6655 CYVR-KSFO

JZA6655 :: CYVR-KSFO

FLIGHT INFORMATION

Flight Status: Arrived
Operator:
Air Canada Jazz
More flights by this operator :: More flights under this callsign
Pilot: Craig G. (10394)
Aircraft: DEHAVILLAND DASH 8 400
(DH8D)
More flights by this aircraft type
Origin: CYVR Vancouver Intl
Canada
Destination: KSFO San Francisco Intl
United States
More flights between these airports :: More routes between these airports
Route: YVR J126 EUG J143 RBG STINS3
File this flight plan on PilotEdge
Remarks:
Altitude:
(Current/Filed)
25,000ft
Speed:
(Current/Filed)
330kts
Departed: 06-Nov-17 11:53 PM
Arrived: 07-Nov-17 02:04 AM
Distance/Time
Traveled:
696nm/2:10
Distance/Time
To Go:
Arrived

Flight Plot

Page will automatically refresh every two minutes.

Flight plan parsing failed; only flown route is shown


Map Options




Map Legend


Flown Route
Filed Route
Departure Airport
Arrival Airport
Navaid (VOR, NDB)
Fix

Horizontal Profiles

Position Reports

Time Latitude Longitude Heading Altitude Ground
Speed
06-Nov-17 23:53 49.184819 -123.169167 9 22ft 9kts
06-Nov-17 23:54 49.186889 -123.179901 279 22ft 40kts
06-Nov-17 23:55 49.188560 -123.194492 279 22ft 36kts
06-Nov-17 23:56 49.189697 -123.204499 96 22ft 2kts
06-Nov-17 23:57 49.189636 -123.203916 99 22ft 14kts
06-Nov-17 23:58 49.184118 -123.153653 99 1239ft 152kts
06-Nov-17 23:59 49.168944 -123.085781 145 3215ft 199kts
07-Nov-17 00:00 49.118194 -123.108073 211 5940ft 206kts
07-Nov-17 00:01 49.068197 -123.143899 182 8508ft 211kts
07-Nov-17 00:02 49.010494 -123.139986 176 10947ft 219kts
07-Nov-17 00:03 48.951460 -123.131994 177 12893ft 227kts
07-Nov-17 00:04 48.891588 -123.124539 177 14475ft 235kts
07-Nov-17 00:05 48.828899 -123.116396 177 15936ft 242kts
07-Nov-17 00:06 48.762675 -123.107718 177 17308ft 249kts
07-Nov-17 00:07 48.693380 -123.099332 177 18565ft 256kts
07-Nov-17 00:08 48.622563 -123.091291 177 19691ft 263kts
07-Nov-17 00:09 48.549966 -123.082763 177 20694ft 269kts
07-Nov-17 00:10 48.475194 -123.073934 177 21606ft 275kts
07-Nov-17 00:11 48.400133 -123.065153 177 22412ft 280kts
07-Nov-17 00:12 48.323840 -123.056187 177 23154ft 285kts
07-Nov-17 00:13 48.244779 -123.046869 177 23832ft 289kts
07-Nov-17 00:14 48.165875 -123.037677 177 24439ft 293kts
07-Nov-17 00:15 48.084756 -123.028197 177 25005ft 297kts
07-Nov-17 00:16 48.001985 -123.018655 178 25328ft 308kts
07-Nov-17 00:17 47.915872 -123.009005 177 25345ft 324kts
07-Nov-17 00:18 47.826333 -122.998455 177 25343ft 337kts
07-Nov-17 00:19 47.733165 -122.987815 177 25340ft 347kts
07-Nov-17 00:20 47.639989 -122.977136 177 25338ft 353kts
07-Nov-17 00:21 47.544186 -122.966229 177 25337ft 357kts
07-Nov-17 00:22 47.447581 -122.955289 177 25336ft 359kts
07-Nov-17 00:23 47.349780 -122.944214 177 25333ft 361kts
07-Nov-17 00:24 47.254152 -122.933391 177 25327ft 363kts
07-Nov-17 00:25 47.157250 -122.922597 177 25327ft 364kts
07-Nov-17 00:26 47.058432 -122.911549 177 25329ft 364kts
07-Nov-17 00:27 46.958354 -122.901315 181 25329ft 364kts
07-Nov-17 00:28 46.858989 -122.907479 184 25330ft 364kts
07-Nov-17 00:29 46.759925 -122.912495 183 25330ft 365kts
07-Nov-17 00:30 46.660380 -122.917129 183 25330ft 366kts
07-Nov-17 00:31 46.560959 -122.921879 183 25330ft 366kts
07-Nov-17 00:32 46.461087 -122.926691 183 25328ft 367kts
07-Nov-17 00:33 46.361633 -122.931355 183 25325ft 367kts
07-Nov-17 00:34 46.261393 -122.936114 183 25322ft 368kts
07-Nov-17 00:35 46.161208 -122.940784 183 25321ft 368kts
07-Nov-17 00:36 46.060251 -122.945538 183 25321ft 368kts
07-Nov-17 00:37 45.959596 -122.950236 183 25320ft 369kts
07-Nov-17 00:38 45.889139 -122.953497 183 25320ft 368kts
07-Nov-17 00:39 45.791782 -122.958021 183 25320ft 369kts
07-Nov-17 00:40 45.691068 -122.962660 183 25316ft 371kts
07-Nov-17 00:41 45.593106 -122.967165 183 25301ft 372kts
07-Nov-17 00:42 45.490725 -122.971895 183 25294ft 372kts
07-Nov-17 00:43 45.388863 -122.976540 183 25293ft 372kts
07-Nov-17 00:44 45.290727 -122.989523 191 25293ft 371kts
07-Nov-17 00:45 45.191285 -123.011385 190 25292ft 371kts
07-Nov-17 00:46 45.094351 -123.030613 190 25291ft 372kts
07-Nov-17 00:47 44.993624 -123.050831 190 25283ft 372kts
07-Nov-17 00:48 44.892063 -123.071134 189 25277ft 372kts
07-Nov-17 00:49 44.791605 -123.091137 189 25277ft 372kts
07-Nov-17 00:50 44.691080 -123.111032 190 25277ft 372kts
07-Nov-17 00:51 44.590120 -123.130990 190 25276ft 373kts
07-Nov-17 00:52 44.490132 -123.150654 190 25275ft 373kts
07-Nov-17 00:53 44.388569 -123.170654 190 25275ft 373kts
07-Nov-17 00:54 44.288929 -123.190090 190 25275ft 373kts
07-Nov-17 00:55 44.188485 -123.209692 190 25275ft 373kts
07-Nov-17 00:56 44.086804 -123.228846 189 25275ft 373kts
07-Nov-17 00:57 43.984847 -123.241898 187 25274ft 373kts
07-Nov-17 00:58 43.884144 -123.255780 188 25274ft 372kts
07-Nov-17 00:59 43.783520 -123.269887 188 25270ft 371kts
07-Nov-17 01:00 43.694458 -123.282280 188 25261ft 371kts
07-Nov-17 01:01 43.610025 -123.293876 188 25256ft 371kts
07-Nov-17 01:02 43.518361 -123.306426 188 25255ft 371kts
07-Nov-17 01:03 43.418085 -123.320178 188 25256ft 371kts
07-Nov-17 01:04 43.317176 -123.333946 188 25257ft 371kts
07-Nov-17 01:05 43.215655 -123.347672 188 25257ft 371kts
07-Nov-17 01:06 43.112966 -123.352722 180 25255ft 374kts
07-Nov-17 01:07 43.010667 -123.349256 181 25246ft 374kts
07-Nov-17 01:08 42.910235 -123.347573 181 25229ft 375kts
07-Nov-17 01:09 42.807845 -123.345513 181 25207ft 375kts
07-Nov-17 01:10 42.705584 -123.343449 181 25188ft 375kts
07-Nov-17 01:11 42.619624 -123.341678 181 25177ft 375kts
07-Nov-17 01:12 42.518417 -123.339674 181 25176ft 375kts
07-Nov-17 01:13 42.417487 -123.337722 181 25187ft 375kts
07-Nov-17 01:14 42.299988 -123.335350 182 25207ft 374kts
07-Nov-17 01:15 42.215474 -123.333733 182 25217ft 374kts
07-Nov-17 01:16 42.113490 -123.331695 182 25223ft 374kts
07-Nov-17 01:17 42.011310 -123.329706 182 25227ft 374kts
07-Nov-17 01:18 41.908578 -123.327717 182 25231ft 374kts
07-Nov-17 01:19 41.805354 -123.325686 182 25234ft 374kts
07-Nov-17 01:20 41.702677 -123.323752 182 25222ft 375kts
07-Nov-17 01:21 41.599685 -123.321708 181 25236ft 375kts
07-Nov-17 01:22 41.496848 -123.319724 182 25236ft 375kts
07-Nov-17 01:23 41.394595 -123.317811 181 25235ft 375kts
07-Nov-17 01:24 41.291560 -123.315784 181 25233ft 375kts
07-Nov-17 01:25 41.188636 -123.313837 181 25226ft 376kts
07-Nov-17 01:26 41.084480 -123.311823 181 25222ft 376kts
07-Nov-17 01:27 40.982356 -123.309950 181 25222ft 376kts
07-Nov-17 01:28 40.880381 -123.308010 181 25220ft 376kts
07-Nov-17 01:29 40.778823 -123.306020 181 25220ft 376kts
07-Nov-17 01:30 40.676338 -123.304119 181 25221ft 376kts
07-Nov-17 01:31 40.574420 -123.302215 181 25221ft 376kts
07-Nov-17 01:32 40.470981 -123.300318 181 25226ft 376kts
07-Nov-17 01:33 40.371439 -123.298395 181 25228ft 375kts
07-Nov-17 01:34 40.268877 -123.296548 181 25228ft 376kts
07-Nov-17 01:35 40.165642 -123.294587 181 25229ft 375kts
07-Nov-17 01:36 40.064290 -123.292733 181 25233ft 375kts
07-Nov-17 01:37 39.961270 -123.290905 181 25235ft 375kts
07-Nov-17 01:38 39.858279 -123.288962 181 25237ft 374kts
07-Nov-17 01:39 39.755952 -123.287035 181 25238ft 374kts
07-Nov-17 01:40 39.657300 -123.285269 181 25240ft 373kts
07-Nov-17 01:41 39.556643 -123.283450 181 25242ft 373kts
07-Nov-17 01:42 39.456100 -123.281615 181 25244ft 373kts
07-Nov-17 01:43 39.358368 -123.279866 181 25246ft 373kts
07-Nov-17 01:44 39.258273 -123.278002 181 25247ft 373kts
07-Nov-17 01:45 39.156225 -123.276245 180 25247ft 373kts
07-Nov-17 01:46 39.055055 -123.273398 175 25247ft 372kts
07-Nov-17 01:47 38.964848 -123.236760 161 25246ft 363kts
07-Nov-17 01:48 38.871392 -123.197357 163 25242ft 355kts
07-Nov-17 01:49 38.778984 -123.158883 162 24988ft 358kts
07-Nov-17 01:50 38.686253 -123.119760 163 22995ft 346kts
07-Nov-17 01:51 38.598106 -123.082878 163 21268ft 328kts
07-Nov-17 01:52 38.510530 -123.046378 162 19589ft 348kts
07-Nov-17 01:53 38.416155 -123.007049 163 17756ft 368kts
07-Nov-17 01:54 38.319613 -122.966989 163 15896ft 364kts
07-Nov-17 01:55 38.224055 -122.927383 163 14059ft 351kts
07-Nov-17 01:56 38.132065 -122.889358 163 12293ft 340kts
07-Nov-17 01:57 38.043961 -122.852694 162 10585ft 307kts
07-Nov-17 01:58 37.969703 -122.820102 161 9147ft 265kts
07-Nov-17 01:59 37.907369 -122.792996 161 7941ft 261kts
07-Nov-17 02:00 37.843215 -122.765201 161 6690ft 246kts
07-Nov-17 02:01 37.794321 -122.717570 142 5547ft 224kts
07-Nov-17 02:02 37.750580 -122.675340 138 4503ft 203kts
07-Nov-17 02:03 37.720987 -122.621147 117 3661ft 177kts
07-Nov-17 02:04 37.697614 -122.564107 115 3056ft 204kts
07-Nov-17 02:05 37.672676 -122.505493 117 2501ft 155kts
07-Nov-17 02:06 37.655487 -122.461992 117 1624ft 140kts
07-Nov-17 02:07 37.637326 -122.419542 119 601ft 136kts
07-Nov-17 02:08 37.621376 -122.381377 118 21ft 84kts
07-Nov-17 02:09 37.617965 -122.373171 118 20ft 0kts
07-Nov-17 02:10 37.630111 -122.402318 119 265ft 130kts
07-Nov-17 02:11 37.617965 -122.373171 118 20ft 0kts
07-Nov-17 02:12 37.617253 -122.371893 178 21ft 6kts
07-Nov-17 02:13 37.616284 -122.373997 277 21ft 16kts
07-Nov-17 02:14 37.616674 -122.379617 202 21ft 6kts
07-Nov-17 02:15 37.616764 -122.380563 299 20ft 0kts
07-Nov-17 02:16 37.616764 -122.380563 299 20ft 0kts
07-Nov-17 02:17 37.616764 -122.380563 299 20ft 0kts
07-Nov-17 02:18 37.616764 -122.380563 299 20ft 0kts
07-Nov-17 02:19 37.616764 -122.380563 299 20ft 0kts

Navigation Log

Ident Type
Flight plan parsing failed, navigation log unavailable